Time,TemperatureF,DewpointF,PressureIn,WindDirection,WindDirectionDegrees,WindSpeedMPH,WindSpeedGustMPH,Humidity,HourlyPrecipIn,Conditions,Clouds,dailyrainin,SoftwareType,DateUTC
2013-01-15 00:00:00,31.5,26.9,30.52,SSW,212,0.0,0.0,83,0.00,,,0.00,Wunderground PWS Mod,2013-01-15 08:00:00,
2013-01-15 00:10:00,31.5,26.9,30.52,SSW,212,0.0,0.0,83,0.00,,,0.00,Wunderground PWS Mod,2013-01-15 08:10:00,
2013-01-15 00:20:00,31.6,27.0,30.52,SSW,212,0.0,0.0,83,0.00,,,0.00,Wunderground PWS Mod,2013-01-15 08:20:00,
2013-01-15 00:30:00,31.6,27.3,30.52,SSW,212,0.0,0.0,84,0.00,,,0.00,Wunderground PWS Mod,2013-01-15 08:30:00,
2013-01-15 00:40:00,31.6,27.0,30.53,SSW,212,0.0,0.0,83,0.00,,,0.00,Wunderground PWS Mod,2013-01-15 08:40:00,
2013-01-15 00:50:00,31.5,26.9,30.53,SSW,212,0.0,0.0,83,0.00,,,0.00,Wunderground PWS Mod,2013-01-15 08:50:00,
2013-01-15 01:00:00,31.3,26.7,30.53,SSW,212,0.0,0.0,83,0.00,,,0.00,Wunderground PWS Mod,2013-01-15 09:00:00,
2013-01-15 01:10:00,31.3,27.0,30.53,SSW,212,0.0,0.0,84,0.00,,,0.00,Wunderground PWS Mod,2013-01-15 09:10:00,
2013-01-15 01:20:00,31.2,27.2,30.54,SSW,212,0.0,1.0,85,0.00,,,0.00,Wunderground PWS Mod,2013-01-15 09:20:00,
2013-01-15 01:30:00,31.2,27.2,30.54,SSW,212,0.0,0.0,85,0.00,,,0.00,Wunderground PWS Mod,2013-01-15 09:30:00,
2013-01-15 01:40:00,31.2,27.5,30.54,SSW,212,0.0,0.0,86,0.00,,,0.00,Wunderground PWS Mod,2013-01-15 09:40:00,
2013-01-15 01:50:00,31.2,27.5,30.55,SSW,212,0.0,0.0,86,0.00,,,0.00,Wunderground PWS Mod,2013-01-15 09:50:00,
2013-01-15 02:00:00,31.2,27.8,30.55,SSW,212,0.0,0.0,87,0.00,,,0.00,Wunderground PWS Mod,2013-01-15 10:00:00,
2013-01-15 02:10:00,31.2,27.8,30.56,SSW,212,0.0,0.0,87,0.00,,,0.00,Wunderground PWS Mod,2013-01-15 10:10:00,
2013-01-15 02:20:00,31.2,27.8,30.56,SSW,212,0.0,0.0,87,0.00,,,0.00,Wunderground PWS Mod,2013-01-15 10:20:00,
2013-01-15 02:30:00,31.2,27.8,30.56,SSW,212,0.0,0.0,87,0.00,,,0.00,Wunderground PWS Mod,2013-01-15 10:30:00,
2013-01-15 02:40:00,31.3,27.9,30.57,SSW,212,0.0,0.0,87,0.00,,,0.00,Wunderground PWS Mod,2013-01-15 10:40:00,
2013-01-15 02:50:00,31.3,27.9,30.57,SSW,212,0.0,0.0,87,0.00,,,0.00,Wunderground PWS Mod,2013-01-15 10:50:00,
2013-01-15 03:00:00,31.3,27.9,30.57,SSW,212,0.0,0.0,87,0.00,,,0.00,Wunderground PWS Mod,2013-01-15 11:00:00,
2013-01-15 03:10:00,31.5,27.8,30.56,SSW,212,0.0,0.0,86,0.00,,,0.00,Wunderground PWS Mod,2013-01-15 11:10:00,
2013-01-15 03:20:00,31.5,27.8,30.57,SSW,212,0.0,0.0,86,0.00,,,0.00,Wunderground PWS Mod,2013-01-15 11:20:00,
2013-01-15 03:30:00,31.3,27.3,30.57,SSW,212,0.0,0.0,85,0.00,,,0.00,Wunderground PWS Mod,2013-01-15 11:30:00,
2013-01-15 03:40:00,31.2,27.2,30.57,SSW,212,0.0,0.0,85,0.00,,,0.00,Wunderground PWS Mod,2013-01-15 11:40:00,
2013-01-15 03:50:00,31.0,27.0,30.57,SSW,212,0.0,0.0,85,0.00,,,0.00,Wunderground PWS Mod,2013-01-15 11:50:00,
2013-01-15 04:00:00,31.0,27.0,30.57,SSW,212,0.0,0.0,85,0.00,,,0.00,Wunderground PWS Mod,2013-01-15 12:00:00,
2013-01-15 04:10:00,31.0,27.0,30.57,SSW,212,0.0,0.0,85,0.00,,,0.00,Wunderground PWS Mod,2013-01-15 12:10:00,
2013-01-15 04:20:00,31.2,27.2,30.57,SSW,212,0.0,0.0,85,0.00,,,0.00,Wunderground PWS Mod,2013-01-15 12:20:00,
2013-01-15 04:30:00,31.2,27.2,30.57,N/A,-737280,0.0,0.0,85,0.00,,,0.00,Wunderground PWS Mod,2013-01-15 12:30:00,
2013-01-15 04:40:00,31.3,27.6,30.57,SSW,212,0.0,0.0,86,0.00,,,0.00,Wunderground PWS Mod,2013-01-15 12:40:00,
2013-01-15 04:50:00,31.3,27.6,30.57,SSW,212,0.0,0.0,86,0.00,,,0.00,Wunderground PWS Mod,2013-01-15 12:50:00,
2013-01-15 05:00:00,31.5,27.8,30.57,SSW,212,0.0,0.0,86,0.00,,,0.00,Wunderground PWS Mod,2013-01-15 13:00:00,
2013-01-15 05:10:00,31.5,27.8,30.57,SSW,212,0.0,0.0,86,0.00,,,0.00,Wunderground PWS Mod,2013-01-15 13:10:00,
2013-01-15 05:20:00,31.6,27.9,30.58,SSW,212,0.0,0.0,86,0.00,,,0.00,Wunderground PWS Mod,2013-01-15 13:20:00,
2013-01-15 05:30:00,31.6,27.9,30.58,SSW,212,0.0,0.0,86,0.00,,,0.00,Wunderground PWS Mod,2013-01-15 13:30:00,
2013-01-15 05:40:00,31.8,28.1,30.58,SSW,212,0.0,0.0,86,0.00,,,0.00,Wunderground PWS Mod,2013-01-15 13:40:00,
2013-01-15 05:50:00,31.8,28.1,30.58,SSW,212,0.0,0.0,86,0.00,,,0.00,Wunderground PWS Mod,2013-01-15 13:50:00,
2013-01-15 06:00:00,31.8,28.1,30.58,SSW,212,0.0,1.0,86,0.00,,,0.00,Wunderground PWS Mod,2013-01-15 14:00:00,
2013-01-15 06:10:00,31.9,28.2,30.58,SSW,212,0.0,1.0,86,0.00,,,0.00,Wunderground PWS Mod,2013-01-15 14:10:00,
2013-01-15 06:20:00,32.1,28.4,30.59,SW,214,0.0,1.0,86,0.00,,,0.00,Wunderground PWS Mod,2013-01-15 14:20:00,
2013-01-15 06:30:00,32.2,28.5,30.59,SW,214,0.0,1.0,86,0.00,,,0.00,Wunderground PWS Mod,2013-01-15 14:30:00,
2013-01-15 06:40:00,32.2,28.5,30.59,SW,214,0.0,0.0,86,0.00,,,0.00,Wunderground PWS Mod,2013-01-15 14:40:00,
2013-01-15 06:50:00,32.4,28.7,30.59,SW,214,0.0,1.0,86,0.00,,,0.00,Wunderground PWS Mod,2013-01-15 14:50:00,
2013-01-15 07:00:00,32.4,28.7,30.59,SW,214,0.0,0.0,86,0.00,,,0.00,Wunderground PWS Mod,2013-01-15 15:00:00,
2013-01-15 07:10:00,32.2,28.5,30.60,SW,214,0.0,0.0,86,0.00,,,0.00,Wunderground PWS Mod,2013-01-15 15:10:00,
2013-01-15 07:20:00,32.2,28.5,30.61,SW,214,0.0,0.0,86,0.00,,,0.00,Wunderground PWS Mod,2013-01-15 15:20:00,
2013-01-15 07:30:00,32.2,28.5,30.61,SW,214,0.0,0.0,86,0.00,,,0.00,Wunderground PWS Mod,2013-01-15 15:30:00,
2013-01-15 07:40:00,32.2,28.5,30.61,SW,214,0.0,0.0,86,0.00,,,0.00,Wunderground PWS Mod,2013-01-15 15:40:00,
2013-01-15 07:50:00,32.2,28.5,30.61,SW,214,0.0,1.0,86,0.00,,,0.00,Wunderground PWS Mod,2013-01-15 15:50:00,
2013-01-15 08:00:00,32.2,28.5,30.61,SW,214,0.0,0.0,86,0.00,,,0.00,Wunderground PWS Mod,2013-01-15 16:00:00,
2013-01-15 08:10:00,32.1,28.4,30.63,SW,214,0.0,0.0,86,0.00,,,0.00,Wunderground PWS Mod,2013-01-15 16:10:00,
2013-01-15 08:20:00,31.9,28.2,30.63,SW,214,0.0,1.0,86,0.00,,,0.00,Wunderground PWS Mod,2013-01-15 16:20:00,
2013-01-15 08:30:00,31.8,28.1,30.63,SW,214,0.0,0.0,86,0.00,,,0.00,Wunderground PWS Mod,2013-01-15 16:30:00,
2013-01-15 08:40:00,31.6,27.9,30.64,SW,214,0.0,0.0,86,0.00,,,0.00,Wunderground PWS Mod,2013-01-15 16:40:00,
2013-01-15 08:50:00,31.5,28.1,30.64,SW,214,0.0,0.0,87,0.00,,,0.00,Wunderground PWS Mod,2013-01-15 16:50:00,
2013-01-15 09:00:00,31.2,27.8,30.64,SW,214,0.0,0.0,87,0.00,,,0.00,Wunderground PWS Mod,2013-01-15 17:00:00,
2013-01-15 09:10:00,31.2,27.8,30.64,SW,214,0.0,0.0,87,0.00,,,0.00,Wunderground PWS Mod,2013-01-15 17:10:00,
2013-01-15 09:20:00,31.2,28.1,30.65,SW,214,0.0,1.0,88,0.00,,,0.00,Wunderground PWS Mod,2013-01-15 17:20:00,
2013-01-15 09:30:00,31.2,28.3,30.65,SW,214,0.0,0.0,89,0.00,,,0.00,Wunderground PWS Mod,2013-01-15 17:30:00,
2013-01-15 09:40:00,32.1,29.5,30.65,SW,214,0.0,0.0,90,0.00,,,0.00,Wunderground PWS Mod,2013-01-15 17:40:00,
2013-01-15 09:50:00,32.8,30.2,30.64,SW,214,0.0,0.0,90,0.00,,,0.00,Wunderground PWS Mod,2013-01-15 17:50:00,
2013-01-15 10:00:00,33.4,30.5,30.64,SW,214,0.0,1.0,89,0.00,,,0.00,Wunderground PWS Mod,2013-01-15 18:00:00,
2013-01-15 10:10:00,34.0,30.8,30.65,SW,214,0.0,0.0,88,0.00,,,0.00,Wunderground PWS Mod,2013-01-15 18:10:00,
2013-01-15 10:20:00,34.7,30.9,30.64,NW,304,0.0,2.0,86,0.00,,,0.00,Wunderground PWS Mod,2013-01-15 18:20:00,
2013-01-15 10:30:00,35.0,30.7,30.64,NNW,338,1.0,3.0,84,0.00,,,0.00,Wunderground PWS Mod,2013-01-15 18:30:00,
2013-01-15 10:40:00,35.3,30.7,30.64,NW,311,1.0,3.0,83,0.00,,,0.00,Wunderground PWS Mod,2013-01-15 18:40:00,
2013-01-15 10:50:00,35.3,30.7,30.65,NW,317,0.0,1.0,83,0.00,,,0.00,Wunderground PWS Mod,2013-01-15 18:50:00,
2013-01-15 11:00:00,35.6,30.9,30.65,NW,317,0.0,2.0,83,0.00,,,0.00,Wunderground PWS Mod,2013-01-15 19:00:00,
2013-01-15 11:10:00,35.9,31.2,30.65,NW,321,1.0,2.0,83,0.00,,,0.00,Wunderground PWS Mod,2013-01-15 19:10:00,
2013-01-15 11:20:00,35.9,30.9,30.65,NW,315,0.0,2.0,82,0.00,,,0.00,Wunderground PWS Mod,2013-01-15 19:20:00,
2013-01-15 11:30:00,36.5,31.5,30.65,NW,321,1.0,2.0,82,0.00,,,0.00,Wunderground PWS Mod,2013-01-15 19:30:00,
2013-01-15 11:40:00,36.8,31.8,30.65,NW,321,0.0,1.0,82,0.00,,,0.00,Wunderground PWS Mod,2013-01-15 19:40:00,
2013-01-15 11:50:00,37.0,31.7,30.64,NW,321,0.0,2.0,81,0.00,,,0.00,Wunderground PWS Mod,2013-01-15 19:50:00,
2013-01-15 12:00:00,37.8,31.9,30.64,NW,321,0.0,2.0,79,0.00,,,0.00,Wunderground PWS Mod,2013-01-15 20:00:00,
2013-01-15 12:10:00,38.0,31.7,30.63,NW,321,0.0,1.0,78,0.00,,,0.00,Wunderground PWS Mod,2013-01-15 20:10:00,
2013-01-15 12:20:00,38.6,30.7,30.63,NW,315,1.0,4.0,73,0.00,,,0.00,Wunderground PWS Mod,2013-01-15 20:20:00,
2013-01-15 12:30:00,39.2,31.3,30.63,NW,320,1.0,4.0,73,0.00,,,0.00,Wunderground PWS Mod,2013-01-15 20:30:00,
2013-01-15 12:40:00,39.5,30.9,30.63,NW,312,1.0,3.0,71,0.00,,,0.00,Wunderground PWS Mod,2013-01-15 20:40:00,
2013-01-15 12:50:00,39.3,31.4,30.63,NW,321,0.0,3.0,73,0.00,,,0.00,Wunderground PWS Mod,2013-01-15 20:50:00,
2013-01-15 13:00:00,39.2,30.9,30.63,NW,321,0.0,2.0,72,0.00,,,0.00,Wunderground PWS Mod,2013-01-15 21:00:00,
2013-01-15 13:10:00,38.8,30.2,30.63,SSW,205,1.0,2.0,71,0.00,,,0.00,Wunderground PWS Mod,2013-01-15 21:10:00,
2013-01-15 13:20:00,39.5,30.5,30.64,NNW,329,0.0,3.0,70,0.00,,,0.00,Wunderground PWS Mod,2013-01-15 21:20:00,
2013-01-15 13:30:00,39.1,30.5,30.64,NNW,329,1.0,2.0,71,0.00,,,0.00,Wunderground PWS Mod,2013-01-15 21:30:00,
2013-01-15 13:40:00,38.8,30.9,30.64,WNW,297,1.0,3.0,73,0.00,,,0.00,Wunderground PWS Mod,2013-01-15 21:40:00,
2013-01-15 13:50:00,39.2,30.2,30.64,NNW,328,1.0,4.0,70,0.00,,,0.00,Wunderground PWS Mod,2013-01-15 21:50:00,
2013-01-15 14:00:00,39.3,30.7,30.64,NW,309,1.0,3.0,71,0.00,,,0.00,Wunderground PWS Mod,2013-01-15 22:00:00,
2013-01-15 14:10:00,39.5,30.5,30.64,WNW,302,0.0,2.0,70,0.00,,,0.00,Wunderground PWS Mod,2013-01-15 22:10:00,
2013-01-15 14:20:00,39.5,30.5,30.64,NW,307,1.0,2.0,70,0.00,,,0.00,Wunderground PWS Mod,2013-01-15 22:20:00,
2013-01-15 14:30:00,39.1,30.1,30.64,NW,322,1.0,3.0,70,0.00,,,0.00,Wunderground PWS Mod,2013-01-15 22:30:00,
2013-01-15 14:40:00,39.1,30.5,30.64,NW,326,1.0,3.0,71,0.00,,,0.00,Wunderground PWS Mod,2013-01-15 22:40:00,
2013-01-15 14:50:00,38.3,30.1,30.65,NW,326,1.0,2.0,72,0.00,,,0.00,Wunderground PWS Mod,2013-01-15 22:50:00,
2013-01-15 15:00:00,38.2,30.3,30.65,NW,326,0.0,2.0,73,0.00,,,0.00,Wunderground PWS Mod,2013-01-15 23:00:00,
2013-01-15 15:10:00,38.3,30.4,30.65,NW,314,1.0,2.0,73,0.00,,,0.00,Wunderground PWS Mod,2013-01-15 23:10:00,
2013-01-15 15:20:00,38.0,30.4,30.65,NW,315,0.0,2.0,74,0.00,,,0.00,Wunderground PWS Mod,2013-01-15 23:20:00,
2013-01-15 15:30:00,37.5,30.3,30.65,NW,315,0.0,2.0,75,0.00,,,0.00,Wunderground PWS Mod,2013-01-15 23:30:00,
2013-01-15 15:40:00,37.0,29.8,30.65,NW,315,0.0,2.0,75,0.00,,,0.00,Wunderground PWS Mod,2013-01-15 23:40:00,
2013-01-15 15:50:00,36.2,29.7,30.65,NW,315,0.0,1.0,77,0.00,,,0.00,Wunderground PWS Mod,2013-01-15 23:50:00,
2013-01-15 16:00:00,35.5,29.6,30.65,NW,315,0.0,1.0,79,0.00,,,0.00,Wunderground PWS Mod,2013-01-16 00:00:00,
2013-01-15 16:10:00,34.9,29.7,30.65,NW,315,0.0,1.0,81,0.00,,,0.00,Wunderground PWS Mod,2013-01-16 00:10:00,
2013-01-15 16:20:00,34.6,29.4,30.65,NW,315,0.0,1.0,81,0.00,,,0.00,Wunderground PWS Mod,2013-01-16 00:20:00,
2013-01-15 16:30:00,34.0,29.1,30.65,NW,315,0.0,0.0,82,0.00,,,0.00,Wunderground PWS Mod,2013-01-16 00:30:00,
2013-01-15 16:40:00,34.0,29.1,30.64,N/A,-737280,0.0,0.0,82,0.00,,,0.00,Wunderground PWS Mod,2013-01-16 00:40:00,
2013-01-15 16:50:00,32.9,28.6,30.64,NW,315,0.0,0.0,84,0.00,,,0.00,Wunderground PWS Mod,2013-01-16 00:50:00,
2013-01-15 17:00:00,32.7,28.7,30.64,NW,315,0.0,0.0,85,0.00,,,0.00,Wunderground PWS Mod,2013-01-16 01:00:00,
2013-01-15 17:10:00,32.2,28.5,30.64,NW,315,0.0,0.0,86,0.00,,,0.00,Wunderground PWS Mod,2013-01-16 01:10:00,
2013-01-15 17:20:00,31.9,28.5,30.64,NW,315,0.0,0.0,87,0.00,,,0.00,Wunderground PWS Mod,2013-01-16 01:20:00,
2013-01-15 17:30:00,31.6,28.2,30.64,NW,315,0.0,0.0,87,0.00,,,0.00,Wunderground PWS Mod,2013-01-16 01:30:00,
2013-01-15 17:40:00,31.5,28.4,30.64,NW,315,0.0,0.0,88,0.00,,,0.00,Wunderground PWS Mod,2013-01-16 01:40:00,
2013-01-15 17:50:00,31.3,28.2,30.64,NW,315,0.0,0.0,88,0.00,,,0.00,Wunderground PWS Mod,2013-01-16 01:50:00,
2013-01-15 18:00:00,31.3,28.4,30.64,NW,315,0.0,0.0,89,0.00,,,0.00,Wunderground PWS Mod,2013-01-16 02:00:00,
2013-01-15 18:10:00,31.2,28.3,30.64,NW,315,0.0,0.0,89,0.00,,,0.00,Wunderground PWS Mod,2013-01-16 02:10:00,
2013-01-15 18:20:00,31.2,28.3,30.64,NW,315,0.0,1.0,89,0.00,,,0.00,Wunderground PWS Mod,2013-01-16 02:20:00,
2013-01-15 18:30:00,31.2,28.6,30.64,NW,315,0.0,1.0,90,0.00,,,0.00,Wunderground PWS Mod,2013-01-16 02:30:00,
2013-01-15 18:40:00,31.3,28.7,30.64,NW,315,0.0,1.0,90,0.00,,,0.00,Wunderground PWS Mod,2013-01-16 02:40:00,
2013-01-15 18:50:00,31.5,28.9,30.64,NW,315,0.0,1.0,90,0.00,,,0.00,Wunderground PWS Mod,2013-01-16 02:50:00,
2013-01-15 19:00:00,31.6,29.0,30.64,NW,315,0.0,1.0,90,0.00,,,0.00,Wunderground PWS Mod,2013-01-16 03:00:00,
2013-01-15 19:10:00,31.6,29.3,30.64,NW,315,0.0,1.0,91,0.00,,,0.00,Wunderground PWS Mod,2013-01-16 03:10:00,
2013-01-15 19:20:00,31.5,29.2,30.64,NW,315,0.0,0.0,91,0.00,,,0.00,Wunderground PWS Mod,2013-01-16 03:20:00,
2013-01-15 19:30:00,31.2,28.9,30.64,NW,315,0.0,1.0,91,0.00,,,0.00,Wunderground PWS Mod,2013-01-16 03:30:00,
2013-01-15 19:40:00,31.5,29.2,30.64,NW,315,0.0,1.0,91,0.00,,,0.00,Wunderground PWS Mod,2013-01-16 03:40:00,
2013-01-15 19:50:00,31.5,29.2,30.64,NW,315,0.0,1.0,91,0.00,,,0.00,Wunderground PWS Mod,2013-01-16 03:50:00,
2013-01-15 20:00:00,31.6,29.5,30.64,NW,315,1.0,2.0,92,0.00,,,0.00,Wunderground PWS Mod,2013-01-16 04:00:00,
2013-01-15 20:10:00,31.8,29.7,30.64,NW,315,0.0,1.0,92,0.00,,,0.00,Wunderground PWS Mod,2013-01-16 04:10:00,
2013-01-15 20:20:00,31.9,29.8,30.64,NW,319,1.0,2.0,92,0.00,,,0.00,Wunderground PWS Mod,2013-01-16 04:20:00,
2013-01-15 20:30:00,31.9,29.8,30.64,NW,319,1.0,2.0,92,0.00,,,0.00,Wunderground PWS Mod,2013-01-16 04:30:00,
2013-01-15 20:40:00,32.1,30.0,30.64,NW,319,1.0,3.0,92,0.00,,,0.00,Wunderground PWS Mod,2013-01-16 04:40:00,
2013-01-15 20:50:00,32.1,30.0,30.64,NW,319,0.0,1.0,92,0.00,,,0.00,Wunderground PWS Mod,2013-01-16 04:50:00,
2013-01-15 21:00:00,32.1,30.0,30.64,NW,319,0.0,1.0,92,0.00,,,0.00,Wunderground PWS Mod,2013-01-16 05:00:00,
2013-01-15 21:10:00,31.9,29.8,30.64,NW,319,1.0,2.0,92,0.00,,,0.00,Wunderground PWS Mod,2013-01-16 05:10:00,
2013-01-15 21:20:00,31.9,29.8,30.64,NW,319,0.0,1.0,92,0.00,,,0.00,Wunderground PWS Mod,2013-01-16 05:20:00,
2013-01-15 21:30:00,31.6,29.5,30.64,NW,319,0.0,1.0,92,0.00,,,0.00,Wunderground PWS Mod,2013-01-16 05:30:00,
2013-01-15 21:40:00,31.5,29.4,30.63,NW,321,1.0,2.0,92,0.00,,,0.00,Wunderground PWS Mod,2013-01-16 05:40:00,
2013-01-15 21:50:00,31.6,29.5,30.63,NW,321,1.0,2.0,92,0.00,,,0.00,Wunderground PWS Mod,2013-01-16 05:50:00,
2013-01-15 22:00:00,31.6,29.5,30.63,NW,321,1.0,2.0,92,0.00,,,0.00,Wunderground PWS Mod,2013-01-16 06:00:00,
2013-01-15 22:10:00,31.8,29.7,30.62,NW,321,1.0,2.0,92,0.00,,,0.00,Wunderground PWS Mod,2013-01-16 06:10:00,
2013-01-15 22:20:00,31.9,29.8,30.62,NW,315,1.0,4.0,92,0.00,,,0.00,Wunderground PWS Mod,2013-01-16 06:20:00,
2013-01-15 22:30:00,31.9,29.8,30.62,NW,306,1.0,1.0,92,0.00,,,0.00,Wunderground PWS Mod,2013-01-16 06:30:00,
2013-01-15 22:40:00,31.9,29.6,30.62,NW,315,0.0,1.0,91,0.00,,,0.00,Wunderground PWS Mod,2013-01-16 06:40:00,
2013-01-15 22:50:00,31.6,29.3,30.62,NW,315,0.0,0.0,91,0.00,,,0.00,Wunderground PWS Mod,2013-01-16 06:50:00,
2013-01-15 23:00:00,31.2,28.9,30.62,NW,315,0.0,1.0,91,0.00,,,0.00,Wunderground PWS Mod,2013-01-16 07:00:00,
2013-01-15 23:10:00,31.0,28.7,30.62,NW,315,0.0,0.0,91,0.00,,,0.00,Wunderground PWS Mod,2013-01-16 07:10:00,
2013-01-15 23:20:00,31.0,28.7,30.62,N/A,-737280,0.0,0.0,91,0.00,,,0.00,Wunderground PWS Mod,2013-01-16 07:20:00,
2013-01-15 23:30:00,30.7,28.4,30.62,NW,315,0.0,1.0,91,0.00,,,0.00,Wunderground PWS Mod,2013-01-16 07:30:00,
2013-01-15 23:40:00,30.7,28.4,30.62,NW,315,0.0,0.0,91,0.00,,,0.00,Wunderground PWS Mod,2013-01-16 07:40:00,
2013-01-15 23:50:00,30.7,28.4,30.62,N/A,-737280,0.0,0.0,91,0.00,,,0.00,Wunderground PWS Mod,2013-01-16 07:50:00,